Time;durP1;ratioP1;P1;durP2;ratioP2;P2;SDS_P1;SDS_P2;PMS_P1;PMS_P2;Temp;Humidity;BMP_temperature;BMP_pressure;BME280_temperature;BME280_humidity;BME280_pressure;Samples;Min_cycle;Max_cycle;Signal;HPM_P1;HPM_P2
2021/05/24 00:00:25;;;;;;;3.00;1.75;;;16.90;91.30;;;;;;4809333;29;20065;-79
2021/05/24 00:02:52;;;;;;;1.98;1.33;;;16.80;91.40;;;;;;4807132;29;20066;-79
2021/05/24 00:05:20;;;;;;;2.50;1.45;;;16.70;91.70;;;;;;4808477;29;20034;-79
2021/05/24 00:07:46;;;;;;;3.50;1.45;;;16.70;92.30;;;;;;4825138;29;20105;-79
2021/05/24 00:10:16;;;;;;;4.00;1.60;;;16.70;92.10;;;;;;4808767;29;20030;-79
2021/05/24 00:12:46;;;;;;;4.43;1.65;;;16.70;92.20;;;;;;4808938;29;20121;-79
2021/05/24 00:15:14;;;;;;;2.35;1.60;;;16.70;92.20;;;;;;4808782;29;20034;-79
2021/05/24 00:17:40;;;;;;;7.53;1.92;;;16.70;91.70;;;;;;4808759;29;20054;-79
2021/05/24 00:20:07;;;;;;;2.35;1.65;;;16.70;91.60;;;;;;4808701;29;20444;-79
2021/05/24 00:22:32;;;;;;;7.00;1.70;;;16.70;91.80;;;;;;4824858;29;20062;-79
2021/05/24 00:24:58;;;;;;;2.75;1.95;;;16.70;91.80;;;;;;4825086;29;20061;-79
2021/05/24 00:27:24;;;;;;;4.45;2.10;;;16.60;91.90;;;;;;4824952;29;20026;-79
2021/05/24 00:29:50;;;;;;;2.80;1.50;;;16.50;92.10;;;;;;4808526;29;20086;-79
2021/05/24 00:32:16;;;;;;;4.43;1.60;;;16.40;92.00;;;;;;4825011;29;20053;-79
2021/05/24 00:34:41;;;;;;;3.42;1.63;;;16.40;91.90;;;;;;4824786;29;20397;-79
2021/05/24 00:37:07;;;;;;;1.85;1.73;;;16.40;91.90;;;;;;4824732;29;20034;-79
2021/05/24 00:39:33;;;;;;;3.65;1.85;;;16.50;91.90;;;;;;4808569;29;20026;-79
2021/05/24 00:41:59;;;;;;;1.77;1.48;;;16.40;91.90;;;;;;4808049;29;20038;-79
2021/05/24 00:44:25;;;;;;;1.33;1.30;;;16.50;92.20;;;;;;4808369;29;20030;-79
2021/05/24 00:46:51;;;;;;;2.00;1.60;;;16.50;92.40;;;;;;4808238;29;20034;-79
2021/05/24 00:49:16;;;;;;;4.10;1.60;;;16.50;92.60;;;;;;4807104;29;20057;-79
2021/05/24 00:51:42;;;;;;;3.08;1.70;;;16.50;92.80;;;;;;4808157;29;20045;-79
2021/05/24 00:54:08;;;;;;;3.70;1.63;;;16.50;93.10;;;;;;4808317;29;20115;-79
2021/05/24 00:56:34;;;;;;;3.28;1.60;;;16.40;93.50;;;;;;4824393;29;20053;-79
2021/05/24 00:58:59;;;;;;;2.33;1.70;;;16.30;93.70;;;;;;4808092;29;20030;-79
2021/05/24 01:01:28;;;;;;;3.20;1.70;;;16.40;93.80;;;;;;4824431;29;20027;-79
2021/05/24 01:03:57;;;;;;;3.72;1.98;;;16.40;93.20;;;;;;4807982;29;20034;-79
2021/05/24 01:06:22;;;;;;;3.70;1.77;;;16.30;93.90;;;;;;4807890;29;20493;-79
2021/05/24 01:08:48;;;;;;;2.97;1.85;;;16.20;93.90;;;;;;4806952;29;20022;-79
2021/05/24 01:11:14;;;;;;;3.47;1.90;;;16.20;94.20;;;;;;4807529;29;20083;-79
2021/05/24 01:13:40;;;;;;;1.60;1.50;;;16.20;94.00;;;;;;4807830;29;20038;-79
2021/05/24 01:16:06;;;;;;;4.03;1.60;;;16.20;93.40;;;;;;4807981;29;20073;-79
2021/05/24 01:18:31;;;;;;;2.88;2.08;;;16.20;92.80;;;;;;4823950;29;20026;-79
2021/05/24 01:20:57;;;;;;;1.85;1.50;;;16.30;92.50;;;;;;4824105;29;20034;-79
2021/05/24 01:23:27;;;;;;;2.88;1.40;;;16.30;92.40;;;;;;4824123;29;20121;-79
2021/05/24 01:25:53;;;;;;;1.30;1.20;;;16.40;92.00;;;;;;4824050;29;20026;-79
2021/05/24 01:28:21;;;;;;;4.28;1.48;;;16.40;91.90;;;;;;4807386;29;20509;-79
2021/05/24 01:30:47;;;;;;;1.63;1.50;;;16.30;92.00;;;;;;4823973;29;20026;-79
2021/05/24 01:33:16;;;;;;;1.08;1.02;;;16.30;92.20;;;;;;4807672;29;20026;-79
2021/05/24 01:35:42;;;;;;;2.95;1.75;;;16.40;91.80;;;;;;4824081;29;20031;-79
2021/05/24 01:38:09;;;;;;;1.80;1.20;;;16.50;91.60;;;;;;4807166;29;20034;-79
2021/05/24 01:40:36;;;;;;;1.85;1.38;;;16.50;91.70;;;;;;4823690;29;20034;-79
2021/05/24 01:43:04;;;;;;;2.00;1.30;;;16.50;91.70;;;;;;4807300;29;20030;-79
2021/05/24 01:45:30;;;;;;;2.75;1.63;;;16.50;92.00;;;;;;4807543;29;20042;-79
2021/05/24 01:47:56;;;;;;;2.03;1.50;;;16.50;91.60;;;;;;4807048;29;20034;-78
2021/05/24 01:50:22;;;;;;;3.35;1.45;;;16.50;91.50;;;;;;4807403;29;20038;-79
2021/05/24 01:52:49;;;;;;;5.25;1.92;;;16.40;91.90;;;;;;4807339;29;20037;-79
2021/05/24 01:55:15;;;;;;;5.60;1.65;;;16.30;92.80;;;;;;4823579;29;20041;-79
2021/05/24 01:57:41;;;;;;;2.53;1.83;;;16.30;92.50;;;;;;4807099;29;20054;-79
2021/05/24 02:00:13;;;;;;;2.35;1.65;;;16.40;92.70;;;;;;4823549;29;20053;-79
2021/05/24 02:02:42;;;;;;;2.30;1.50;;;16.30;92.40;;;;;;4807103;29;20460;-79
2021/05/24 02:05:10;;;;;;;2.03;1.38;;;16.30;92.20;;;;;;4807196;29;20030;-79
2021/05/24 02:07:36;;;;;;;2.78;1.45;;;16.30;92.20;;;;;;4823201;29;20117;-79
2021/05/24 02:10:03;;;;;;;2.10;1.20;;;16.30;92.10;;;;;;4823163;29;20034;-78
2021/05/24 02:12:29;;;;;;;1.38;1.27;;;16.20;92.00;;;;;;4807005;29;20401;-79
2021/05/24 02:14:54;;;;;;;2.00;1.48;;;16.20;92.10;;;;;;4823396;29;20030;-79
2021/05/24 02:17:20;;;;;;;3.05;1.50;;;16.30;92.10;;;;;;4806693;29;20038;-78
2021/05/24 02:19:48;;;;;;;1.10;1.10;;;16.30;92.50;;;;;;4823436;29;20074;-79
2021/05/24 02:22:15;;;;;;;2.00;1.17;;;16.30;92.50;;;;;;4806635;29;20057;-79
2021/05/24 02:24:42;;;;;;;4.25;1.42;;;16.30;92.50;;;;;;4823245;29;20037;-79
2021/05/24 02:27:08;;;;;;;1.77;1.17;;;16.30;92.60;;;;;;4806512;29;20041;-78
2021/05/24 02:29:34;;;;;;;1.85;1.30;;;16.30;92.70;;;;;;4823201;29;20519;-79
2021/05/24 02:32:00;;;;;;;1.58;1.48;;;16.30;92.50;;;;;;4806591;29;20022;-79
2021/05/24 02:34:26;;;;;;;2.25;1.60;;;16.30;92.60;;;;;;4806487;29;20030;-79
2021/05/24 02:36:52;;;;;;;1.48;1.35;;;16.30;92.70;;;;;;4823103;29;20030;-79
2021/05/24 02:39:18;;;;;;;3.00;2.05;;;16.40;93.10;;;;;;4806434;29;20057;-79
2021/05/24 02:41:44;;;;;;;2.65;1.90;;;16.30;94.00;;;;;;4822976;29;20382;-79
2021/05/24 02:44:11;;;;;;;2.38;1.67;;;16.20;94.80;;;;;;4806490;29;20027;-79
2021/05/24 02:46:37;;;;;;;2.95;1.60;;;16.20;95.30;;;;;;4822851;29;20038;-79
2021/05/24 02:49:03;;;;;;;4.63;1.70;;;16.20;95.10;;;;;;4822607;29;20113;-79
2021/05/24 02:51:29;;;;;;;1.80;1.70;;;16.30;94.30;;;;;;4822904;29;20109;-79
2021/05/24 02:53:55;;;;;;;6.10;1.35;;;16.30;94.10;;;;;;4806363;29;20027;-79
2021/05/24 02:56:21;;;;;;;3.17;1.52;;;16.30;93.80;;;;;;4822835;29;20042;-79
2021/05/24 02:58:46;;;;;;;2.83;1.42;;;16.30;94.00;;;;;;4822832;29;20115;-79
2021/05/24 03:01:13;;;;;;;1.30;1.20;;;16.30;94.00;;;;;;4806185;29;20026;-79
2021/05/24 03:03:40;;;;;;;3.08;1.20;;;16.30;93.60;;;;;;4805480;29;20493;-79
2021/05/24 03:06:06;;;;;;;1.73;1.63;;;16.30;93.50;;;;;;4822793;29;20431;-79
2021/05/24 03:08:32;;;;;;;1.55;1.40;;;16.30;93.50;;;;;;4821421;29;20054;-79
2021/05/24 03:10:59;;;;;;;2.60;1.40;;;16.30;93.50;;;;;;4821260;29;20027;-79
2021/05/24 03:13:26;;;;;;;2.95;1.40;;;16.30;93.70;;;;;;4808483;29;20113;-79
2021/05/24 03:15:55;;;;;;;6.05;1.52;;;16.40;93.40;;;;;;4809967;29;20045;-79
2021/05/24 03:18:21;;;;;;;1.45;1.30;;;16.40;93.60;;;;;;4809712;29;20038;-78
2021/05/24 03:20:48;;;;;;;2.45;1.20;;;16.40;93.60;;;;;;4826007;29;20035;-79
2021/05/24 03:23:13;;;;;;;3.20;1.35;;;16.40;93.60;;;;;;4809859;29;20042;-79
2021/05/24 03:25:39;;;;;;;1.85;1.30;;;16.50;93.80;;;;;;4826078;29;20034;-79
2021/05/24 03:28:06;;;;;;;2.70;1.48;;;16.40;94.40;;;;;;4809595;29;20498;-79
2021/05/24 03:30:32;;;;;;;4.38;1.63;;;16.40;94.90;;;;;;4809845;29;20033;-79
2021/05/24 03:32:58;;;;;;;3.53;1.60;;;16.40;95.30;;;;;;4809400;29;20117;-79
2021/05/24 03:35:23;;;;;;;1.95;1.35;;;16.40;96.50;;;;;;4825756;29;20496;-79
2021/05/24 03:37:49;;;;;;;1.92;1.40;;;16.40;96.50;;;;;;4809608;29;20030;-79
2021/05/24 03:40:16;;;;;;;4.30;1.70;;;16.40;96.00;;;;;;4809526;29;20030;-79
2021/05/24 03:42:43;;;;;;;2.38;1.30;;;16.50;96.20;;;;;;4809547;29;20092;-79
2021/05/24 03:45:15;;;;;;;1.55;1.45;;;16.40;96.90;;;;;;4809535;29;20033;-79
2021/05/24 03:47:42;;;;;;;2.47;1.55;;;16.40;97.80;;;;;;4808911;29;20031;-78
2021/05/24 03:50:08;;;;;;;2.05;1.80;;;16.40;97.50;;;;;;4809302;29;20098;-79
2021/05/24 03:52:34;;;;;;;2.10;1.80;;;16.30;97.10;;;;;;4825378;29;20041;-79
2021/05/24 03:55:00;;;;;;;2.75;1.60;;;16.30;97.10;;;;;;4825444;29;20038;-78
2021/05/24 03:57:25;;;;;;;5.45;1.60;;;16.30;97.20;;;;;;4809213;29;20117;-78
2021/05/24 03:59:51;;;;;;;3.35;2.33;;;16.40;97.20;;;;;;4809108;29;20489;-79
2021/05/24 04:02:17;;;;;;;3.40;1.52;;;16.40;97.10;;;;;;4825281;29;20034;-79
2021/05/24 04:04:43;;;;;;;1.48;1.38;;;16.40;97.00;;;;;;4825329;29;20037;-79
2021/05/24 04:07:11;;;;;;;2.72;1.40;;;16.40;96.90;;;;;;4825199;29;20023;-79
2021/05/24 04:09:37;;;;;;;3.55;1.50;;;16.40;97.10;;;;;;4808810;29;20046;-79
2021/05/24 04:12:03;;;;;;;2.97;1.50;;;16.40;97.60;;;;;;4825339;29;20453;-79
2021/05/24 04:14:28;;;;;;;1.80;1.70;;;16.40;99.40;;;;;;4808663;29;20030;-78
2021/05/24 04:16:55;;;;;;;1.80;1.70;;;16.40;99.70;;;;;;4808734;29;20027;-78
2021/05/24 04:19:21;;;;;;;3.92;2.25;;;16.40;99.90;;;;;;4825228;29;20146;-78
2021/05/24 04:21:47;;;;;;;2.75;2.10;;;16.40;99.90;;;;;;4808981;29;20552;-78
2021/05/24 04:24:15;;;;;;;5.57;1.85;;;16.40;99.90;;;;;;4807530;29;20494;-78
2021/05/24 04:26:41;;;;;;;3.13;1.80;;;16.30;99.90;;;;;;4825145;29;20030;-78
2021/05/24 04:29:07;;;;;;;2.88;2.08;;;16.20;99.90;;;;;;4824812;29;20031;-78
2021/05/24 04:31:34;;;;;;;5.32;2.25;;;16.10;99.90;;;;;;4825065;29;20110;-78
2021/05/24 04:34:00;;;;;;;4.40;2.00;;;16.10;99.90;;;;;;4824909;29;20097;-78
2021/05/24 04:36:26;;;;;;;2.55;2.35;;;16.10;99.90;;;;;;4801888;29;20030;-78
2021/05/24 04:38:51;;;;;;;3.90;2.17;;;16.00;99.90;;;;;;4809820;29;20102;-78
2021/05/24 04:41:18;;;;;;;3.42;2.58;;;16.00;99.90;;;;;;4826141;29;20045;-78
2021/05/24 04:43:43;;;;;;;4.78;2.35;;;16.00;99.90;;;;;;4825942;29;20065;-78
2021/05/24 04:46:09;;;;;;;7.30;2.83;;;16.00;99.90;;;;;;4825839;29;20062;-78
2021/05/24 04:48:35;;;;;;;2.70;2.38;;;16.00;99.90;;;;;;4825896;29;20037;-78
2021/05/24 04:51:03;;;;;;;4.10;2.20;;;16.00;99.90;;;;;;4825884;29;20034;-78
2021/05/24 04:53:29;;;;;;;5.90;2.83;;;15.90;99.90;;;;;;4825873;29;20027;-78
2021/05/24 04:55:55;;;;;;;2.28;2.08;;;15.80;99.90;;;;;;4825611;29;20030;-78
2021/05/24 04:58:21;;;;;;;2.58;2.22;;;15.90;99.90;;;;;;4825761;29;20041;-78
2021/05/24 05:00:47;;;;;;;3.25;2.17;;;15.80;99.90;;;;;;4825505;29;20392;-78
2021/05/24 05:03:13;;;;;;;5.07;2.85;;;15.80;99.90;;;;;;4809249;29;20042;-78
2021/05/24 05:05:38;;;;;;;4.30;2.67;;;15.70;99.90;;;;;;4825541;29;20018;-78
2021/05/24 05:08:04;;;;;;;3.45;2.40;;;15.60;99.90;;;;;;4822410;29;20038;-78
2021/05/24 05:10:30;;;;;;;2.13;1.95;;;15.60;99.90;;;;;;4825819;29;20058;-78
2021/05/24 05:12:56;;;;;;;3.55;2.40;;;15.60;99.90;;;;;;4825789;29;20647;-78
2021/05/24 05:15:21;;;;;;;4.63;2.42;;;15.60;99.90;;;;;;4809074;29;20078;-78
2021/05/24 05:17:47;;;;;;;3.72;2.58;;;15.60;99.90;;;;;;4825401;29;20034;-78
2021/05/24 05:20:13;;;;;;;3.97;2.60;;;15.60;99.90;;;;;;4824925;29;20065;-78
2021/05/24 05:22:39;;;;;;;4.03;2.33;;;15.50;99.90;;;;;;4822726;29;20490;-78
2021/05/24 05:25:06;;;;;;;5.22;2.60;;;15.60;99.90;;;;;;4806564;29;20037;-78
2021/05/24 05:27:32;;;;;;;2.85;2.63;;;15.60;99.90;;;;;;4806524;29;20023;-78
2021/05/24 05:29:58;;;;;;;6.25;2.60;;;15.60;99.90;;;;;;4822739;29;20568;-78
2021/05/24 05:32:23;;;;;;;2.78;2.40;;;15.60;99.90;;;;;;4822822;29;20085;-78
2021/05/24 05:34:49;;;;;;;4.03;2.72;;;15.70;99.90;;;;;;4806212;29;20037;-78
2021/05/24 05:37:16;;;;;;;4.25;2.70;;;15.70;99.90;;;;;;4806922;29;20692;-78
2021/05/24 05:39:42;;;;;;;4.25;2.70;;;15.70;99.90;;;;;;4824086;29;20034;-78
2021/05/24 05:42:07;;;;;;;3.15;2.60;;;15.70;99.90;;;;;;4823985;29;20228;-78
2021/05/24 05:44:33;;;;;;;3.00;2.80;;;15.70;99.90;;;;;;4824143;29;20560;-78
2021/05/24 05:46:59;;;;;;;3.13;2.83;;;15.70;99.90;;;;;;4807484;29;20035;-78
2021/05/24 05:49:24;;;;;;;4.35;2.75;;;15.80;99.90;;;;;;4823883;29;20155;-78
2021/05/24 05:51:50;;;;;;;2.90;2.70;;;15.70;99.90;;;;;;4807342;29;20040;-78
2021/05/24 05:54:16;;;;;;;5.90;2.90;;;15.80;99.90;;;;;;4823967;29;20037;-78
2021/05/24 05:56:41;;;;;;;5.20;2.83;;;15.80;99.90;;;;;;4823663;29;20117;-78
2021/05/24 05:59:07;;;;;;;3.90;3.30;;;15.80;99.90;;;;;;4824654;29;20060;-78
2021/05/24 06:01:33;;;;;;;3.30;3.03;;;15.90;99.90;;;;;;4824831;29;20576;-78
2021/05/24 06:03:59;;;;;;;10.00;4.05;;;15.90;99.90;;;;;;4824902;29;20034;-78
2021/05/24 06:06:24;;;;;;;4.82;3.45;;;15.90;99.90;;;;;;4824903;29;20532;-78
2021/05/24 06:08:50;;;;;;;7.55;3.17;;;15.90;99.90;;;;;;4824805;29;20485;-78
2021/05/24 06:11:16;;;;;;;8.95;3.78;;;15.90;99.90;;;;;;4808415;29;20034;-78
2021/05/24 06:13:42;;;;;;;7.03;3.88;;;15.90;99.90;;;;;;4807874;29;20026;-79
2021/05/24 06:16:07;;;;;;;7.20;3.83;;;16.00;99.90;;;;;;4824558;29;20057;-79
2021/05/24 06:18:33;;;;;;;5.18;3.50;;;16.00;99.90;;;;;;4824505;29;20438;-78
2021/05/24 06:20:59;;;;;;;7.03;3.67;;;15.90;99.90;;;;;;4808079;29;20038;-78
2021/05/24 06:23:25;;;;;;;5.97;3.42;;;16.00;99.90;;;;;;4824411;29;20114;-79
2021/05/24 06:25:51;;;;;;;5.63;4.03;;;15.90;99.90;;;;;;4824310;29;20026;-78
2021/05/24 06:28:16;;;;;;;8.55;3.42;;;15.80;99.90;;;;;;4824469;29;20105;-78
2021/05/24 06:30:42;;;;;;;3.10;2.90;;;15.80;99.90;;;;;;4807916;29;20114;-78
2021/05/24 06:33:10;;;;;;;5.63;3.40;;;15.80;99.90;;;;;;4824489;29;20090;-78
2021/05/24 06:35:36;;;;;;;6.80;3.80;;;15.70;99.90;;;;;;4824368;29;20030;-78
2021/05/24 06:38:02;;;;;;;6.63;3.03;;;15.70;99.90;;;;;;4807753;29;20038;-78
2021/05/24 06:40:28;;;;;;;2.92;2.72;;;15.60;99.90;;;;;;4824109;29;20038;-78
2021/05/24 06:42:53;;;;;;;7.68;3.33;;;15.60;99.90;;;;;;4824134;29;20509;-78
2021/05/24 06:45:19;;;;;;;5.63;3.00;;;15.60;99.90;;;;;;4824292;29;20030;-78
2021/05/24 06:47:46;;;;;;;4.45;3.20;;;15.60;99.90;;;;;;4807009;29;20110;-78
2021/05/24 06:50:13;;;;;;;6.28;3.65;;;15.70;99.90;;;;;;4823994;29;20073;-78
2021/05/24 06:52:39;;;;;;;6.13;3.30;;;15.70;99.90;;;;;;4807474;29;20030;-78
2021/05/24 06:55:06;;;;;;;6.10;3.10;;;15.60;99.90;;;;;;4824128;29;20041;-78
2021/05/24 06:57:31;;;;;;;7.65;3.10;;;15.60;99.90;;;;;;4823952;29;20057;-78
2021/05/24 06:59:57;;;;;;;6.80;3.00;;;15.60;99.90;;;;;;4807260;29;20474;-78
2021/05/24 07:02:23;;;;;;;4.95;3.10;;;15.60;99.90;;;;;;4822782;29;20482;-78
2021/05/24 07:04:49;;;;;;;3.42;2.85;;;15.50;99.90;;;;;;4822992;29;20030;-78
2021/05/24 07:07:15;;;;;;;3.55;2.90;;;15.50;99.90;;;;;;4821410;29;20023;-78
2021/05/24 07:09:41;;;;;;;10.65;3.22;;;15.50;99.90;;;;;;4823058;29;20027;-78
2021/05/24 07:12:08;;;;;;;7.95;2.90;;;15.50;99.90;;;;;;4807236;29;20435;-78
2021/05/24 07:14:34;;;;;;;3.40;2.50;;;15.50;99.90;;;;;;4823999;29;20034;-78
2021/05/24 07:17:00;;;;;;;2.72;2.45;;;15.60;99.90;;;;;;4824013;29;20026;-77
2021/05/24 07:19:25;;;;;;;2.30;1.90;;;15.60;99.90;;;;;;4822950;29;20097;-81
2021/05/24 07:21:53;;;;;;;2.13;1.92;;;15.70;99.90;;;;;;4822768;29;20156;-81
2021/05/24 07:24:19;;;;;;;5.57;2.22;;;15.70;99.90;;;;;;4822385;29;20062;-81
2021/05/24 07:26:47;;;;;;;2.65;2.42;;;15.80;99.90;;;;;;4806091;29;20504;-81
2021/05/24 07:29:12;;;;;;;3.80;2.25;;;15.70;99.90;;;;;;4806222;29;20090;-81
2021/05/24 07:31:38;;;;;;;3.47;2.58;;;15.80;99.90;;;;;;4822496;29;20443;-81
2021/05/24 07:34:04;;;;;;;3.60;2.10;;;15.80;99.90;;;;;;4806026;29;20161;-81
2021/05/24 07:36:29;;;;;;;3.95;1.85;;;15.80;99.90;;;;;;4822454;29;20034;-81
2021/05/24 07:38:55;;;;;;;5.50;2.25;;;15.90;99.90;;;;;;4805971;29;20505;-81
2021/05/24 07:41:31;;;;;;;;;;;;;;;;;;;;;
2021/05/24 07:43:57;;;;;;;2.67;2.47;;;16.00;99.90;;;;;;4822241;29;20030;-81
2021/05/24 07:46:23;;;;;;;4.30;2.30;;;16.10;99.90;;;;;;4805634;29;20117;-80
2021/05/24 07:48:48;;;;;;;2.78;2.13;;;16.20;99.90;;;;;;4822294;29;20072;-80
2021/05/24 07:51:14;;;;;;;2.90;2.50;;;16.20;99.90;;;;;;4822082;29;20030;-80
2021/05/24 07:53:40;;;;;;;2.88;2.55;;;16.20;99.90;;;;;;4822430;29;20393;-81
2021/05/24 07:56:06;;;;;;;2.28;2.05;;;16.20;99.90;;;;;;4805791;29;20035;-81
2021/05/24 07:58:31;;;;;;;1.88;1.77;;;16.30;99.90;;;;;;4822914;29;20073;-77
2021/05/24 08:00:57;;;;;;;2.30;2.03;;;16.40;99.90;;;;;;4809329;29;20054;-80
2021/05/24 08:03:23;;;;;;;3.75;2.45;;;16.60;99.90;;;;;;4825117;29;20038;-80
2021/05/24 08:05:48;;;;;;;2.60;2.38;;;16.60;99.90;;;;;;4809229;29;20037;-80
2021/05/24 08:08:14;;;;;;;2.47;1.95;;;16.60;99.90;;;;;;4808889;29;20489;-80
2021/05/24 08:10:40;;;;;;;2.38;2.28;;;16.50;99.90;;;;;;4809023;29;20053;-81
2021/05/24 08:13:06;;;;;;;6.47;2.85;;;16.40;99.90;;;;;;4825169;29;20478;-81
2021/05/24 08:15:32;;;;;;;3.22;2.92;;;16.40;99.90;;;;;;4825365;29;20030;-81
2021/05/24 08:18:04;;;;;;;9.68;3.88;;;16.30;99.90;;;;;;4825122;29;20078;-78
2021/05/24 08:20:30;;;;;;;18.27;4.53;;;16.40;99.90;;;;;;4825446;29;20034;-78
2021/05/24 08:22:56;;;;;;;5.72;3.45;;;16.70;99.90;;;;;;4824919;29;20497;-78
2021/05/24 08:25:22;;;;;;;5.95;3.00;;;16.60;99.90;;;;;;4825114;29;20022;-77
2021/05/24 08:27:48;;;;;;;4.68;3.25;;;16.70;99.90;;;;;;4808553;29;20033;-77
2021/05/24 08:30:14;;;;;;;3.38;2.90;;;16.70;99.90;;;;;;4825044;29;20430;-77
2021/05/24 08:32:40;;;;;;;7.50;3.38;;;16.70;99.90;;;;;;4824949;29;20094;-77
2021/05/24 08:35:07;;;;;;;5.72;3.17;;;16.70;99.90;;;;;;4808340;29;20114;-77
2021/05/24 08:37:34;;;;;;;4.47;2.60;;;16.70;99.90;;;;;;4824795;29;20087;-77
2021/05/24 08:40:00;;;;;;;6.47;2.80;;;16.80;99.90;;;;;;4808212;29;20034;-77
2021/05/24 08:42:30;;;;;;;4.97;2.40;;;16.70;99.90;;;;;;4824606;29;20397;-77
2021/05/24 08:44:57;;;;;;;3.92;2.58;;;16.80;99.90;;;;;;4808984;29;20023;-78
2021/05/24 08:47:31;;;;;;;9.68;2.80;;;16.90;99.90;;;;;;4809500;29;20126;-78
2021/05/24 08:49:57;;;;;;;6.80;3.05;;;17.00;99.90;;;;;;4825382;29;20122;-80
2021/05/24 08:52:23;;;;;;;5.28;2.78;;;16.90;99.90;;;;;;4825883;29;20030;-80
2021/05/24 08:54:49;;;;;;;3.03;2.65;;;16.80;99.90;;;;;;4825820;29;20532;-77
2021/05/24 08:57:15;;;;;;;3.58;2.50;;;16.70;99.90;;;;;;4823019;29;20035;-77
2021/05/24 08:59:40;;;;;;;5.70;2.97;;;16.70;99.90;;;;;;4804817;29;20049;-78
2021/05/24 09:02:06;;;;;;;3.47;2.67;;;16.70;99.90;;;;;;4820675;29;20042;-78
2021/05/24 09:04:48;;;;;;;5.63;2.60;;;16.50;99.90;;;;;;4813926;29;20093;-78
2021/05/24 09:07:15;;;;;;;4.25;2.58;;;16.40;99.90;;;;;;4792133;29;20049;-78
2021/05/24 09:10:04;;;;;;;8.52;2.83;;;16.30;99.90;;;;;;4822996;29;20026;-79
2021/05/24 09:12:32;;;;;;;5.03;2.70;;;16.30;99.90;;;;;;4822871;29;20030;-79
2021/05/24 09:15:10;;;;;;;6.25;2.53;;;16.30;99.90;;;;;;4823250;29;20027;-78
2021/05/24 09:17:49;;;;;;;3.33;2.95;;;16.30;99.90;;;;;;4816780;29;20030;-78
2021/05/24 09:20:24;;;;;;;5.97;2.95;;;16.30;99.90;;;;;;4806677;29;20064;-79
2021/05/24 09:23:14;;;;;;;2.72;2.50;;;16.30;99.90;;;;;;4806806;29;20038;-80
2021/05/24 09:25:56;;;;;;;4.57;2.30;;;16.30;99.90;;;;;;4823129;29;20433;-79
2021/05/24 09:28:46;;;;;;;4.53;2.85;;;16.30;99.90;;;;;;4822755;29;20034;-78
2021/05/24 09:31:15;;;;;;;2.83;2.58;;;16.20;99.90;;;;;;4822974;29;20026;-78
2021/05/24 09:33:48;;;;;;;4.10;2.80;;;16.20;99.90;;;;;;4821973;29;20027;-78
2021/05/24 09:36:14;;;;;;;8.07;3.08;;;16.20;99.90;;;;;;4821952;29;20545;-78
2021/05/24 09:38:43;;;;;;;4.80;2.85;;;16.10;99.90;;;;;;4822617;29;20045;-78
2021/05/24 09:41:11;;;;;;;6.72;2.42;;;16.10;99.90;;;;;;4822039;29;20383;-78
2021/05/24 09:43:39;;;;;;;7.00;2.60;;;16.00;99.90;;;;;;4822005;29;20042;-79
2021/05/24 09:46:08;;;;;;;3.67;2.92;;;16.00;99.90;;;;;;4805912;29;20026;-79
2021/05/24 09:48:35;;;;;;;4.82;3.00;;;16.00;99.90;;;;;;4806963;29;20393;-78
2021/05/24 09:51:09;;;;;;;4.38;2.92;;;16.00;99.90;;;;;;4824431;29;20051;-78
2021/05/24 09:53:35;;;;;;;5.05;3.25;;;16.00;99.90;;;;;;4821362;29;20034;-77
2021/05/24 09:56:20;;;;;;;5.70;2.90;;;16.00;99.90;;;;;;4797584;29;20524;-77
2021/05/24 09:58:57;;;;;;;4.75;2.75;;;16.00;99.90;;;;;;4823816;29;20432;-77
2021/05/24 10:01:29;;;;;;;6.57;2.92;;;16.10;99.90;;;;;;4824064;29;20434;-77
2021/05/24 10:03:59;;;;;;;4.57;2.40;;;16.10;99.90;;;;;;4823606;29;20023;-77
2021/05/24 10:06:25;;;;;;;3.60;2.30;;;16.00;99.90;;;;;;4823465;29;20485;-76
2021/05/24 10:08:52;;;;;;;1.98;1.85;;;16.10;99.90;;;;;;4823758;29;20518;-76
2021/05/24 10:11:18;;;;;;;2.22;2.10;;;16.10;99.90;;;;;;4823669;29;20082;-77
2021/05/24 10:13:45;;;;;;;3.67;1.95;;;16.20;99.90;;;;;;4823515;29;20030;-76
2021/05/24 10:16:13;;;;;;;2.10;1.90;;;16.20;99.90;;;;;;4823018;29;20054;-76
2021/05/24 10:18:39;;;;;;;2.30;2.10;;;16.30;99.90;;;;;;4823777;29;20022;-77
2021/05/24 10:21:06;;;;;;;2.47;2.28;;;16.40;99.90;;;;;;4823613;29;20050;-76
2021/05/24 10:23:32;;;;;;;3.70;2.50;;;16.40;99.90;;;;;;4823421;29;20060;-77
2021/05/24 10:26:00;;;;;;;2.78;2.58;;;16.50;99.90;;;;;;4806757;29;20083;-76
2021/05/24 10:28:30;;;;;;;4.53;3.08;;;16.50;99.90;;;;;;4823487;29;20106;-76
2021/05/24 10:30:57;;;;;;;3.92;2.90;;;16.50;99.90;;;;;;4823427;29;20029;-77
2021/05/24 10:33:44;;;;;;;8.63;2.70;;;16.40;99.90;;;;;;4823170;29;20058;-77
2021/05/24 10:36:36;;;;;;;4.40;3.40;;;16.30;99.90;;;;;;4821037;29;20098;-77
2021/05/24 10:39:08;;;;;;;5.82;3.35;;;16.20;99.90;;;;;;4820815;29;20405;-77
2021/05/24 10:41:57;;;;;;;6.60;3.05;;;16.20;99.90;;;;;;4822990;29;20105;-77
2021/05/24 10:44:36;;;;;;;4.47;2.92;;;16.10;99.90;;;;;;4822722;29;20037;-77
2021/05/24 10:47:20;;;;;;;3.97;3.50;;;16.00;99.90;;;;;;4800881;29;20030;-77
2021/05/24 10:50:03;;;;;;;4.18;3.85;;;16.10;99.90;;;;;;4803590;29;20671;-77
2021/05/24 10:52:34;;;;;;;6.30;3.25;;;16.10;99.90;;;;;;4815342;29;20041;-77
2021/05/24 10:55:20;;;;;;;6.43;3.80;;;16.20;99.90;;;;;;4820635;29;20175;-77
2021/05/24 10:57:55;;;;;;;3.97;3.30;;;16.20;99.90;;;;;;4817139;29;20031;-77
2021/05/24 11:00:21;;;;;;;4.35;3.70;;;16.20;99.90;;;;;;4819325;29;20111;-76
2021/05/24 11:02:56;;;;;;;4.18;3.55;;;16.20;99.90;;;;;;4811046;29;20035;-76
2021/05/24 11:05:30;;;;;;;5.28;3.22;;;16.20;99.90;;;;;;4819414;29;20038;-76
2021/05/24 11:08:01;;;;;;;4.38;3.97;;;16.20;99.90;;;;;;4802756;29;20022;-76
2021/05/24 11:10:32;;;;;;;7.35;3.50;;;16.10;99.90;;;;;;4802781;29;20556;-77
2021/05/24 11:13:10;;;;;;;4.55;4.15;;;16.10;99.90;;;;;;4819003;29;20027;-76
2021/05/24 11:15:41;;;;;;;5.03;4.28;;;16.10;99.90;;;;;;4820408;29;20427;-77
2021/05/24 11:18:07;;;;;;;3.92;3.47;;;16.10;99.90;;;;;;4822533;29;20030;-78
2021/05/24 11:20:38;;;;;;;4.75;4.18;;;16.10;99.90;;;;;;4804153;29;20087;-78
2021/05/24 11:26:15;;;;;;;3.83;3.50;;;16.20;99.90;;;;;;4818590;29;20038;-78
2021/05/24 11:28:50;;;;;;;4.10;3.58;;;16.20;99.90;;;;;;4821255;29;20027;-78
2021/05/24 11:31:36;;;;;;;5.60;4.43;;;16.20;99.90;;;;;;4820694;29;20481;-78
2021/05/24 11:34:07;;;;;;;5.88;3.63;;;16.10;99.90;;;;;;4817027;29;20156;-78
2021/05/24 11:36:33;;;;;;;9.05;3.83;;;16.10;99.90;;;;;;4790630;29;20037;-79
2021/05/24 11:39:08;;;;;;;4.10;3.67;;;16.10;99.90;;;;;;4797683;29;20650;-78
2021/05/24 11:41:36;;;;;;;4.13;3.72;;;16.10;99.90;;;;;;4825008;29;20031;-79
2021/05/24 11:44:03;;;;;;;6.85;3.65;;;16.10;99.90;;;;;;4824399;29;20038;-78
2021/05/24 11:46:42;;;;;;;4.75;3.10;;;16.10;99.90;;;;;;4824385;29;20033;-78
2021/05/24 11:49:08;;;;;;;11.32;4.47;;;16.20;99.90;;;;;;4824234;29;20038;-78
2021/05/24 11:51:35;;;;;;;10.32;4.07;;;16.20;99.90;;;;;;4824918;29;20030;-78
2021/05/24 11:54:06;;;;;;;3.88;2.90;;;16.10;99.90;;;;;;4825817;29;20026;-78
2021/05/24 11:56:42;;;;;;;2.33;2.22;;;16.10;99.90;;;;;;4826695;29;20038;-79
2021/05/24 11:59:10;;;;;;;5.40;2.60;;;16.10;99.90;;;;;;4810606;29;20673;-78
2021/05/24 12:01:37;;;;;;;2.40;2.30;;;16.20;99.90;;;;;;4826573;29;20061;-78
2021/05/24 12:04:17;;;;;;;3.45;2.67;;;16.20;99.90;;;;;;4810408;29;20095;-78
2021/05/24 12:07:03;;;;;;;2.95;2.75;;;16.10;99.90;;;;;;4826619;29;20105;-79
2021/05/24 12:09:43;;;;;;;3.08;2.63;;;16.10;99.90;;;;;;4810342;29;20120;-78
2021/05/24 12:12:14;;;;;;;3.45;2.78;;;16.00;99.90;;;;;;4810293;29;20117;-79
2021/05/24 12:14:45;;;;;;;3.33;2.92;;;16.00;99.90;;;;;;4826660;29;20022;-79
2021/05/24 12:17:21;;;;;;;5.32;2.33;;;16.10;99.90;;;;;;4826222;29;20031;-78
2021/05/24 12:19:51;;;;;;;4.20;2.28;;;16.20;99.90;;;;;;4826377;29;20030;-79
2021/05/24 12:22:17;;;;;;;5.53;2.53;;;16.10;99.90;;;;;;4826183;29;20029;-79
2021/05/24 12:24:45;;;;;;;2.60;2.47;;;16.10;99.90;;;;;;4826490;29;20159;-79
2021/05/24 12:27:13;;;;;;;2.63;2.20;;;16.20;99.90;;;;;;4826252;29;20470;-79
2021/05/24 12:29:54;;;;;;;2.88;2.33;;;16.20;99.90;;;;;;4826470;29;20030;-78
2021/05/24 12:32:29;;;;;;;2.30;2.13;;;16.20;99.90;;;;;;4826225;29;20030;-79
2021/05/24 12:34:55;;;;;;;3.00;2.80;;;16.30;99.90;;;;;;4804849;29;20115;-79
2021/05/24 12:37:21;;;;;;;2.80;2.60;;;16.20;99.90;;;;;;4823419;29;20178;-79
2021/05/24 12:39:48;;;;;;;3.25;2.95;;;16.30;99.90;;;;;;4823272;29;20039;-79
2021/05/24 12:42:15;;;;;;;3.33;3.03;;;16.30;99.90;;;;;;4823157;29;20038;-79
2021/05/24 12:44:41;;;;;;;3.25;2.92;;;16.30;99.90;;;;;;4821239;29;20030;-78
2021/05/24 12:47:21;;;;;;;2.38;2.13;;;16.20;99.90;;;;;;4822258;29;20473;-80
2021/05/24 12:49:48;;;;;;;3.45;1.92;;;16.20;99.90;;;;;;4803119;29;20054;-79
2021/05/24 12:52:16;;;;;;;3.63;2.58;;;16.20;99.90;;;;;;4816663;29;20080;-79
2021/05/24 12:54:52;;;;;;;4.25;2.53;;;16.30;99.90;;;;;;4822642;29;20030;-78